Terminal Aerodrome Forecast
Issued by NWS Blacksburg, VA

Current Version | Previous Version | Graphics & Text | Print | Product List | Glossary On
Versions: 1 2 3 4 5 6 7 8 9 10 11 12 13 14 15 16 17 18 19 20 21 22 23 24 25 26 27 28
891
FTUS41 KRNK 072027 AAA
TAFBLF
TAF AMD
KBLF 072027Z 0720/0818 07005KT P6SM SCT250
     FM080800 26005KT P6SM SCT080 BKN150
     FM081200 21005KT 6SM -SN SCT030 OVC050
     FM081500 18007KT 2SM -SN BR SCT012 OVC020=

USA.gov is the U.S. government's official web portal to all federal, state and local government web resources and services.